sensor_id;sensor_type;location;lat;lon;timestamp;P1;durP1;ratioP1;P2;durP2;ratioP2
3046;SDS011;1533;44.816;20.420;2022-09-17T00:00:27;13.10;;;10.57;;
3046;SDS011;1533;44.816;20.420;2022-09-17T00:02:57;11.50;;;10.10;;
3046;SDS011;1533;44.816;20.420;2022-09-17T00:05:23;15.13;;;10.17;;
3046;SDS011;1533;44.816;20.420;2022-09-17T00:07:57;12.47;;;10.10;;
3046;SDS011;1533;44.816;20.420;2022-09-17T00:10:24;12.47;;;9.80;;
3046;SDS011;1533;44.816;20.420;2022-09-17T00:12:59;21.00;;;11.40;;
3046;SDS011;1533;44.816;20.420;2022-09-17T00:15:41;13.90;;;10.27;;
3046;SDS011;1533;44.816;20.420;2022-09-17T00:18:07;12.37;;;10.17;;
3046;SDS011;1533;44.816;20.420;2022-09-17T00:20:37;12.03;;;10.57;;
3046;SDS011;1533;44.816;20.420;2022-09-17T00:23:04;15.00;;;11.80;;
3046;SDS011;1533;44.816;20.420;2022-09-17T00:25:32;13.80;;;11.47;;
3046;SDS011;1533;44.816;20.420;2022-09-17T00:28:10;13.33;;;10.50;;
3046;SDS011;1533;44.816;20.420;2022-09-17T00:30:44;12.33;;;11.00;;
3046;SDS011;1533;44.816;20.420;2022-09-17T00:33:33;16.23;;;11.80;;
3046;SDS011;1533;44.816;20.420;2022-09-17T00:36:04;14.30;;;11.10;;
3046;SDS011;1533;44.816;20.420;2022-09-17T00:38:35;13.40;;;11.00;;
3046;SDS011;1533;44.816;20.420;2022-09-17T00:41:03;13.57;;;10.17;;
3046;SDS011;1533;44.816;20.420;2022-09-17T00:43:56;11.80;;;10.13;;
3046;SDS011;1533;44.816;20.420;2022-09-17T00:46:35;13.03;;;9.40;;
3046;SDS011;1533;44.816;20.420;2022-09-17T00:49:19;11.03;;;9.93;;
3046;SDS011;1533;44.816;20.420;2022-09-17T00:52:02;12.10;;;10.23;;
3046;SDS011;1533;44.816;20.420;2022-09-17T00:54:37;11.20;;;9.70;;
3046;SDS011;1533;44.816;20.420;2022-09-17T00:57:07;12.53;;;10.10;;
3046;SDS011;1533;44.816;20.420;2022-09-17T00:59:42;12.27;;;10.97;;
3046;SDS011;1533;44.816;20.420;2022-09-17T01:02:13;12.60;;;11.00;;
3046;SDS011;1533;44.816;20.420;2022-09-17T01:05:03;12.57;;;9.87;;
3046;SDS011;1533;44.816;20.420;2022-09-17T01:07:39;12.57;;;10.40;;
3046;SDS011;1533;44.816;20.420;2022-09-17T01:13:05;15.20;;;9.50;;
3046;SDS011;1533;44.816;20.420;2022-09-17T01:19:10;11.07;;;9.43;;
3046;SDS011;1533;44.816;20.420;2022-09-17T01:24:47;11.80;;;9.40;;
3046;SDS011;1533;44.816;20.420;2022-09-17T01:30:36;10.03;;;9.03;;
3046;SDS011;1533;44.816;20.420;2022-09-17T01:45:24;10.27;;;7.33;;
3046;SDS011;1533;44.816;20.420;2022-09-17T01:48:14;12.13;;;6.20;;
3046;SDS011;1533;44.816;20.420;2022-09-17T01:51:09;10.10;;;4.73;;
3046;SDS011;1533;44.816;20.420;2022-09-17T01:53:42;5.37;;;3.60;;
3046;SDS011;1533;44.816;20.420;2022-09-17T01:56:56;3.87;;;2.80;;
3046;SDS011;1533;44.816;20.420;2022-09-17T01:59:50;4.50;;;2.47;;
3046;SDS011;1533;44.816;20.420;2022-09-17T02:02:30;4.90;;;3.50;;
3046;SDS011;1533;44.816;20.420;2022-09-17T02:05:06;4.37;;;3.10;;
3046;SDS011;1533;44.816;20.420;2022-09-17T02:07:37;3.20;;;2.70;;
3046;SDS011;1533;44.816;20.420;2022-09-17T02:10:11;4.40;;;3.20;;
3046;SDS011;1533;44.816;20.420;2022-09-17T02:12:52;2.50;;;2.30;;
3046;SDS011;1533;44.816;20.420;2022-09-17T02:15:39;4.70;;;3.13;;
3046;SDS011;1533;44.816;20.420;2022-09-17T02:18:23;4.30;;;3.00;;
3046;SDS011;1533;44.816;20.420;2022-09-17T02:24:26;3.70;;;2.90;;
3046;SDS011;1533;44.816;20.420;2022-09-17T02:30:14;7.23;;;3.13;;
3046;SDS011;1533;44.816;20.420;2022-09-17T02:35:49;6.73;;;3.13;;
3046;SDS011;1533;44.816;20.420;2022-09-17T02:38:28;4.33;;;3.63;;
3046;SDS011;1533;44.816;20.420;2022-09-17T02:55:58;6.27;;;2.80;;
3046;SDS011;1533;44.816;20.420;2022-09-17T03:04:48;4.57;;;2.70;;
3046;SDS011;1533;44.816;20.420;2022-09-17T03:07:51;4.13;;;3.23;;
3046;SDS011;1533;44.816;20.420;2022-09-17T03:10:23;4.00;;;2.90;;
3046;SDS011;1533;44.816;20.420;2022-09-17T03:13:05;4.30;;;3.17;;
3046;SDS011;1533;44.816;20.420;2022-09-17T03:15:51;3.67;;;3.23;;
3046;SDS011;1533;44.816;20.420;2022-09-17T03:24:37;4.60;;;3.70;;
3046;SDS011;1533;44.816;20.420;2022-09-17T03:27:13;5.00;;;4.33;;
3046;SDS011;1533;44.816;20.420;2022-09-17T03:29:55;4.80;;;4.10;;
3046;SDS011;1533;44.816;20.420;2022-09-17T03:35:21;5.27;;;3.57;;
3046;SDS011;1533;44.816;20.420;2022-09-17T03:38:05;4.73;;;3.53;;
3046;SDS011;1533;44.816;20.420;2022-09-17T03:40:42;6.07;;;3.93;;
3046;SDS011;1533;44.816;20.420;2022-09-17T03:43:13;4.00;;;3.23;;
3046;SDS011;1533;44.816;20.420;2022-09-17T03:45:41;5.13;;;4.63;;
3046;SDS011;1533;44.816;20.420;2022-09-17T03:48:15;4.83;;;4.17;;
3046;SDS011;1533;44.816;20.420;2022-09-17T03:50:50;5.53;;;4.10;;
3046;SDS011;1533;44.816;20.420;2022-09-17T03:53:20;5.37;;;4.17;;
3046;SDS011;1533;44.816;20.420;2022-09-17T03:56:02;4.60;;;4.00;;
3046;SDS011;1533;44.816;20.420;2022-09-17T03:58:36;5.10;;;4.33;;
3046;SDS011;1533;44.816;20.420;2022-09-17T04:01:32;6.00;;;4.63;;
3046;SDS011;1533;44.816;20.420;2022-09-17T04:04:06;6.50;;;5.90;;
3046;SDS011;1533;44.816;20.420;2022-09-17T04:06:40;5.37;;;4.30;;
3046;SDS011;1533;44.816;20.420;2022-09-17T04:09:11;7.97;;;5.57;;
3046;SDS011;1533;44.816;20.420;2022-09-17T04:11:41;5.07;;;4.57;;
3046;SDS011;1533;44.816;20.420;2022-09-17T04:14:12;4.97;;;4.17;;
3046;SDS011;1533;44.816;20.420;2022-09-17T04:16:41;6.90;;;4.13;;
3046;SDS011;1533;44.816;20.420;2022-09-17T04:19:11;4.17;;;3.53;;
3046;SDS011;1533;44.816;20.420;2022-09-17T04:25:05;4.90;;;3.70;;
3046;SDS011;1533;44.816;20.420;2022-09-17T04:27:34;7.10;;;4.47;;
3046;SDS011;1533;44.816;20.420;2022-09-17T04:30:11;4.63;;;4.03;;
3046;SDS011;1533;44.816;20.420;2022-09-17T04:32:39;7.30;;;4.63;;
3046;SDS011;1533;44.816;20.420;2022-09-17T04:35:19;5.50;;;4.30;;
3046;SDS011;1533;44.816;20.420;2022-09-17T04:38:02;5.00;;;4.50;;
3046;SDS011;1533;44.816;20.420;2022-09-17T04:40:38;5.93;;;4.77;;
3046;SDS011;1533;44.816;20.420;2022-09-17T04:43:23;5.33;;;4.73;;
3046;SDS011;1533;44.816;20.420;2022-09-17T04:46:02;7.03;;;5.00;;
3046;SDS011;1533;44.816;20.420;2022-09-17T04:48:29;5.83;;;4.93;;
3046;SDS011;1533;44.816;20.420;2022-09-17T04:51:08;6.20;;;5.33;;
3046;SDS011;1533;44.816;20.420;2022-09-17T04:53:39;5.90;;;5.30;;
3046;SDS011;1533;44.816;20.420;2022-09-17T04:56:13;5.27;;;4.77;;
3046;SDS011;1533;44.816;20.420;2022-09-17T04:58:44;6.93;;;5.60;;
3046;SDS011;1533;44.816;20.420;2022-09-17T05:01:13;6.70;;;5.93;;
3046;SDS011;1533;44.816;20.420;2022-09-17T05:03:50;7.73;;;6.13;;
3046;SDS011;1533;44.816;20.420;2022-09-17T05:09:39;7.67;;;5.93;;
3046;SDS011;1533;44.816;20.420;2022-09-17T05:12:10;8.43;;;6.30;;
3046;SDS011;1533;44.816;20.420;2022-09-17T05:18:23;10.17;;;6.87;;
3046;SDS011;1533;44.816;20.420;2022-09-17T05:20:53;7.87;;;6.73;;
3046;SDS011;1533;44.816;20.420;2022-09-17T05:23:40;8.03;;;6.90;;
3046;SDS011;1533;44.816;20.420;2022-09-17T05:26:13;9.37;;;8.10;;
3046;SDS011;1533;44.816;20.420;2022-09-17T05:28:54;8.87;;;7.10;;
3046;SDS011;1533;44.816;20.420;2022-09-17T05:31:45;10.33;;;8.23;;
3046;SDS011;1533;44.816;20.420;2022-09-17T05:34:12;10.10;;;7.30;;
3046;SDS011;1533;44.816;20.420;2022-09-17T05:37:02;11.10;;;8.80;;
3046;SDS011;1533;44.816;20.420;2022-09-17T05:40:10;12.43;;;9.33;;
3046;SDS011;1533;44.816;20.420;2022-09-17T05:42:47;9.60;;;8.50;;
3046;SDS011;1533;44.816;20.420;2022-09-17T05:45:39;12.00;;;10.27;;
3046;SDS011;1533;44.816;20.420;2022-09-17T05:48:35;11.60;;;8.53;;
3046;SDS011;1533;44.816;20.420;2022-09-17T05:51:42;10.63;;;8.70;;
3046;SDS011;1533;44.816;20.420;2022-09-17T05:57:23;10.30;;;7.80;;
3046;SDS011;1533;44.816;20.420;2022-09-17T05:59:57;10.70;;;8.13;;
3046;SDS011;1533;44.816;20.420;2022-09-17T06:54:22;11.67;;;9.97;;
3046;SDS011;1533;44.816;20.420;2022-09-17T08:53:19;7.47;;;6.10;;
3046;SDS011;1533;44.816;20.420;2022-09-17T08:56:17;6.17;;;5.57;;
3046;SDS011;1533;44.816;20.420;2022-09-17T09:07:23;8.10;;;5.97;;
3046;SDS011;1533;44.816;20.420;2022-09-17T09:12:50;6.47;;;5.33;;
3046;SDS011;1533;44.816;20.420;2022-09-17T09:20:50;6.87;;;5.10;;
3046;SDS011;1533;44.816;20.420;2022-09-17T09:34:40;6.23;;;5.63;;
3046;SDS011;1533;44.816;20.420;2022-09-17T09:37:16;5.33;;;4.83;;
3046;SDS011;1533;44.816;20.420;2022-09-17T09:39:42;6.73;;;6.13;;
3046;SDS011;1533;44.816;20.420;2022-09-17T09:42:18;5.90;;;5.30;;
3046;SDS011;1533;44.816;20.420;2022-09-17T09:44:58;6.80;;;6.10;;
3046;SDS011;1533;44.816;20.420;2022-09-17T09:47:38;10.37;;;3.97;;
3046;SDS011;1533;44.816;20.420;2022-09-17T09:50:24;6.23;;;4.97;;
3046;SDS011;1533;44.816;20.420;2022-09-17T10:03:42;5.77;;;4.57;;
3046;SDS011;1533;44.816;20.420;2022-09-17T10:10:31;5.30;;;4.80;;
3046;SDS011;1533;44.816;20.420;2022-09-17T10:26:35;5.80;;;4.77;;
3046;SDS011;1533;44.816;20.420;2022-09-17T10:29:01;6.57;;;5.30;;
3046;SDS011;1533;44.816;20.420;2022-09-17T10:31:44;5.10;;;4.60;;
3046;SDS011;1533;44.816;20.420;2022-09-17T10:34:21;6.03;;;5.43;;
3046;SDS011;1533;44.816;20.420;2022-09-17T10:36:51;5.20;;;4.73;;
3046;SDS011;1533;44.816;20.420;2022-09-17T10:41:54;6.40;;;5.80;;
3046;SDS011;1533;44.816;20.420;2022-09-17T10:44:31;6.27;;;5.47;;
3046;SDS011;1533;44.816;20.420;2022-09-17T10:47:05;6.70;;;5.83;;
3046;SDS011;1533;44.816;20.420;2022-09-17T10:52:50;6.57;;;5.90;;
3046;SDS011;1533;44.816;20.420;2022-09-17T10:55:33;8.30;;;7.10;;
3046;SDS011;1533;44.816;20.420;2022-09-17T11:00:36;8.13;;;7.20;;
3046;SDS011;1533;44.816;20.420;2022-09-17T11:19:07;6.67;;;5.97;;
3046;SDS011;1533;44.816;20.420;2022-09-17T11:21:49;6.83;;;6.13;;
3046;SDS011;1533;44.816;20.420;2022-09-17T11:24:45;6.87;;;5.80;;
3046;SDS011;1533;44.816;20.420;2022-09-17T11:32:50;6.90;;;6.30;;
3046;SDS011;1533;44.816;20.420;2022-09-17T11:37:53;7.17;;;6.47;;
3046;SDS011;1533;44.816;20.420;2022-09-17T11:40:24;6.73;;;6.10;;
3046;SDS011;1533;44.816;20.420;2022-09-17T11:43:08;7.93;;;7.03;;
3046;SDS011;1533;44.816;20.420;2022-09-17T11:46:26;6.50;;;5.90;;
3046;SDS011;1533;44.816;20.420;2022-09-17T11:48:31;6.50;;;5.90;;
3046;SDS011;1533;44.816;20.420;2022-09-17T11:51:19;7.20;;;6.50;;
3046;SDS011;1533;44.816;20.420;2022-09-17T11:56:51;6.40;;;5.80;;
3046;SDS011;1533;44.816;20.420;2022-09-17T11:59:21;6.90;;;6.30;;
3046;SDS011;1533;44.816;20.420;2022-09-17T12:09:57;8.40;;;6.17;;
3046;SDS011;1533;44.816;20.420;2022-09-17T12:12:55;8.20;;;6.80;;
3046;SDS011;1533;44.816;20.420;2022-09-17T12:15:25;6.00;;;5.40;;
3046;SDS011;1533;44.816;20.420;2022-09-17T12:18:19;6.67;;;6.00;;
3046;SDS011;1533;44.816;20.420;2022-09-17T12:21:06;6.03;;;5.43;;
3046;SDS011;1533;44.816;20.420;2022-09-17T12:23:37;7.10;;;6.40;;
3046;SDS011;1533;44.816;20.420;2022-09-17T12:26:12;7.50;;;5.50;;
3046;SDS011;1533;44.816;20.420;2022-09-17T12:28:42;5.87;;;5.27;;
3046;SDS011;1533;44.816;20.420;2022-09-17T12:37:06;7.93;;;6.30;;
3046;SDS011;1533;44.816;20.420;2022-09-17T12:42:33;8.83;;;5.90;;
3046;SDS011;1533;44.816;20.420;2022-09-17T12:54:12;4.90;;;4.40;;
3046;SDS011;1533;44.816;20.420;2022-09-17T12:59:48;5.57;;;4.97;;
3046;SDS011;1533;44.816;20.420;2022-09-17T13:02:23;5.40;;;4.90;;
3046;SDS011;1533;44.816;20.420;2022-09-17T22:31:29;3.70;;;3.20;;
3046;SDS011;1533;44.816;20.420;2022-09-17T22:34:42;4.30;;;2.80;;
3046;SDS011;1533;44.816;20.420;2022-09-17T22:45:19;3.27;;;2.83;;
3046;SDS011;1533;44.816;20.420;2022-09-17T23:20:32;6.83;;;3.40;;
3046;SDS011;1533;44.816;20.420;2022-09-17T23:23:51;6.17;;;3.17;;
3046;SDS011;1533;44.816;20.420;2022-09-17T23:26:36;3.30;;;2.90;;
3046;SDS011;1533;44.816;20.420;2022-09-17T23:29:54;4.10;;;3.47;;
3046;SDS011;1533;44.816;20.420;2022-09-17T23:33:04;3.33;;;3.03;;
3046;SDS011;1533;44.816;20.420;2022-09-17T23:39:48;3.80;;;2.90;;
3046;SDS011;1533;44.816;20.420;2022-09-17T23:49:57;3.17;;;2.87;;
3046;SDS011;1533;44.816;20.420;2022-09-17T23:52:52;3.30;;;2.80;;
3046;SDS011;1533;44.816;20.420;2022-09-17T23:55:44;3.20;;;2.70;;
3046;SDS011;1533;44.816;20.420;2022-09-17T23:58:33;3.43;;;3.10;;
